sensor_id;sensor_type;location;lat;lon;timestamp;pressure;altitude;pressure_sealevel;temperature;humidity
32933;BME280;19444;50.518;10.870;2023-02-28T00:02:31;97530.56;;;-3.49;100.00
32933;BME280;19444;50.518;10.870;2023-02-28T00:05:29;97535.84;;;-3.42;100.00
32933;BME280;19444;50.518;10.870;2023-02-28T00:08:26;97537.91;;;-3.31;100.00
32933;BME280;19444;50.518;10.870;2023-02-28T00:11:23;97525.97;;;-3.40;100.00
32933;BME280;19444;50.518;10.870;2023-02-28T00:14:20;97534.94;;;-3.28;100.00
32933;BME280;19444;50.518;10.870;2023-02-28T00:17:17;97530.88;;;-3.30;100.00
32933;BME280;19444;50.518;10.870;2023-02-28T00:20:15;97525.81;;;-3.32;100.00
32933;BME280;19444;50.518;10.870;2023-02-28T00:23:12;97527.38;;;-3.44;100.00
32933;BME280;19444;50.518;10.870;2023-02-28T00:26:09;97520.13;;;-3.42;100.00
32933;BME280;19444;50.518;10.870;2023-02-28T00:29:06;97533.88;;;-3.33;100.00
32933;BME280;19444;50.518;10.870;2023-02-28T00:32:04;97523.69;;;-3.15;100.00
32933;BME280;19444;50.518;10.870;2023-02-28T00:35:02;97523.84;;;-3.23;100.00
32933;BME280;19444;50.518;10.870;2023-02-28T00:37:59;97526.22;;;-3.35;100.00
32933;BME280;19444;50.518;10.870;2023-02-28T00:40:56;97523.84;;;-3.23;100.00
32933;BME280;19444;50.518;10.870;2023-02-28T00:43:52;97528.88;;;-3.28;100.00
32933;BME280;19444;50.518;10.870;2023-02-28T00:46:49;97517.59;;;-3.22;100.00
32933;BME280;19444;50.518;10.870;2023-02-28T00:49:46;97523.84;;;-3.23;100.00
32933;BME280;19444;50.518;10.870;2023-02-28T00:52:44;97523.69;;;-3.15;100.00
32933;BME280;19444;50.518;10.870;2023-02-28T00:55:41;97531.78;;;-3.10;100.00
32933;BME280;19444;50.518;10.870;2023-02-28T00:58:38;97526.56;;;-3.03;100.00
32933;BME280;19444;50.518;10.870;2023-02-28T01:01:35;97522.63;;;-3.21;100.00
32933;BME280;19444;50.518;10.870;2023-02-28T01:04:32;97527.88;;;-2.73;100.00
32933;BME280;19444;50.518;10.870;2023-02-28T01:07:29;97522.19;;;-2.90;100.00
32933;BME280;19444;50.518;10.870;2023-02-28T01:10:28;97525.03;;;-2.78;100.00
32933;BME280;19444;50.518;10.870;2023-02-28T01:13:27;97525.78;;;-2.97;100.00
32933;BME280;19444;50.518;10.870;2023-02-28T01:16:25;97513.06;;;-2.94;100.00
32933;BME280;19444;50.518;10.870;2023-02-28T01:19:22;97514.88;;;-3.01;100.00
32933;BME280;19444;50.518;10.870;2023-02-28T01:22:18;97516.13;;;-2.90;100.00
32933;BME280;19444;50.518;10.870;2023-02-28T01:25:15;97515.69;;;-3.00;100.00
32933;BME280;19444;50.518;10.870;2023-02-28T01:28:12;97512.84;;;-3.05;100.00
32933;BME280;19444;50.518;10.870;2023-02-28T01:31:10;97513.03;;;-3.07;100.00
32933;BME280;19444;50.518;10.870;2023-02-28T01:34:07;97511.66;;;-2.96;100.00
32933;BME280;19444;50.518;10.870;2023-02-28T01:37:04;97509.59;;;-3.07;100.00
32933;BME280;19444;50.518;10.870;2023-02-28T01:40:01;97504.41;;;-2.94;100.00
32933;BME280;19444;50.518;10.870;2023-02-28T01:42:57;97501.38;;;-2.98;100.00
32933;BME280;19444;50.518;10.870;2023-02-28T01:45:56;97500.25;;;-3.23;100.00
32933;BME280;19444;50.518;10.870;2023-02-28T01:49:13;97501.94;;;-3.02;100.00
32933;BME280;19444;50.518;10.870;2023-02-28T01:52:12;97500.50;;;-3.11;100.00
32933;BME280;19444;50.518;10.870;2023-02-28T01:55:17;97505.44;;;-2.89;100.00
32933;BME280;19444;50.518;10.870;2023-02-28T01:58:15;97500.72;;;-3.06;100.00
32933;BME280;19444;50.518;10.870;2023-02-28T02:01:12;97493.09;;;-2.95;100.00
32933;BME280;19444;50.518;10.870;2023-02-28T02:04:17;97484.47;;;-2.75;100.00
32933;BME280;19444;50.518;10.870;2023-02-28T02:07:16;97495.56;;;-2.80;100.00
32933;BME280;19444;50.518;10.870;2023-02-28T02:17:26;97484.88;;;-2.65;100.00
32933;BME280;19444;50.518;10.870;2023-02-28T02:21:13;97486.69;;;-2.79;100.00
32933;BME280;19444;50.518;10.870;2023-02-28T02:24:43;97486.28;;;-2.76;100.00
32933;BME280;19444;50.518;10.870;2023-02-28T02:27:59;97488.50;;;-2.79;100.00
32933;BME280;19444;50.518;10.870;2023-02-28T02:31:30;97487.47;;;-2.85;100.00
32933;BME280;19444;50.518;10.870;2023-02-28T02:35:05;97485.88;;;-2.79;100.00
32933;BME280;19444;50.518;10.870;2023-02-28T02:45:59;97481.19;;;-2.97;100.00
32933;BME280;19444;50.518;10.870;2023-02-28T02:49:02;97496.06;;;-3.11;100.00
32933;BME280;19444;50.518;10.870;2023-02-28T02:52:05;97485.56;;;-3.18;100.00
32933;BME280;19444;50.518;10.870;2023-02-28T02:55:04;97482.94;;;-3.11;100.00
32933;BME280;19444;50.518;10.870;2023-02-28T02:58:06;97484.41;;;-3.08;100.00
32933;BME280;19444;50.518;10.870;2023-02-28T03:01:05;97486.97;;;-3.15;100.00
32933;BME280;19444;50.518;10.870;2023-02-28T03:04:22;97486.31;;;-3.37;100.00
32933;BME280;19444;50.518;10.870;2023-02-28T03:07:19;97492.41;;;-3.64;100.00
32933;BME280;19444;50.518;10.870;2023-02-28T03:10:51;97491.66;;;-3.86;100.00
32933;BME280;19444;50.518;10.870;2023-02-28T03:17:38;97487.28;;;-4.07;100.00
32933;BME280;19444;50.518;10.870;2023-02-28T03:21:24;97486.69;;;-4.09;100.00
32933;BME280;19444;50.518;10.870;2023-02-28T03:25:00;97478.03;;;-4.03;100.00
32933;BME280;19444;50.518;10.870;2023-02-28T03:28:31;97475.06;;;-4.28;100.00
32933;BME280;19444;50.518;10.870;2023-02-28T03:31:41;97473.25;;;-3.99;100.00
32933;BME280;19444;50.518;10.870;2023-02-28T03:34:51;97473.91;;;-3.91;100.00
32933;BME280;19444;50.518;10.870;2023-02-28T03:37:58;97475.56;;;-3.83;100.00
32933;BME280;19444;50.518;10.870;2023-02-28T03:41:27;97487.63;;;-4.17;100.00
32933;BME280;19444;50.518;10.870;2023-02-28T03:44:33;97488.78;;;-3.63;100.00
32933;BME280;19444;50.518;10.870;2023-02-28T03:47:54;97474.91;;;-3.92;100.00
32933;BME280;19444;50.518;10.870;2023-02-28T03:50:58;97486.84;;;-4.39;100.00
32933;BME280;19444;50.518;10.870;2023-02-28T03:54:08;97489.81;;;-4.42;100.00
32933;BME280;19444;50.518;10.870;2023-02-28T03:57:15;97491.44;;;-4.41;100.00
32933;BME280;19444;50.518;10.870;2023-02-28T04:00:28;97490.50;;;-4.33;100.00
32933;BME280;19444;50.518;10.870;2023-02-28T04:03:28;97490.94;;;-4.30;100.00
32933;BME280;19444;50.518;10.870;2023-02-28T04:06:25;97487.34;;;-4.01;100.00
32933;BME280;19444;50.518;10.870;2023-02-28T04:09:22;97495.53;;;-3.82;100.00
32933;BME280;19444;50.518;10.870;2023-02-28T04:12:19;97496.66;;;-3.91;100.00
32933;BME280;19444;50.518;10.870;2023-02-28T04:15:15;97497.63;;;-3.99;100.00
32933;BME280;19444;50.518;10.870;2023-02-28T04:18:12;97500.50;;;-3.87;100.00
32933;BME280;19444;50.518;10.870;2023-02-28T04:21:10;97500.44;;;-3.66;100.00
32933;BME280;19444;50.518;10.870;2023-02-28T04:24:10;97494.88;;;-3.56;100.00
32933;BME280;19444;50.518;10.870;2023-02-28T04:27:10;97493.72;;;-3.75;100.00
32933;BME280;19444;50.518;10.870;2023-02-28T04:30:08;97491.91;;;-3.81;100.00
32933;BME280;19444;50.518;10.870;2023-02-28T04:33:05;97484.91;;;-3.67;100.00
32933;BME280;19444;50.518;10.870;2023-02-28T04:36:06;97486.72;;;-3.68;100.00
32933;BME280;19444;50.518;10.870;2023-02-28T04:39:04;97500.50;;;-3.87;100.00
32933;BME280;19444;50.518;10.870;2023-02-28T04:42:01;97499.59;;;-3.73;100.00
32933;BME280;19444;50.518;10.870;2023-02-28T04:44:58;97496.25;;;-3.60;100.00
32933;BME280;19444;50.518;10.870;2023-02-28T04:47:55;97500.88;;;-3.62;100.00
32933;BME280;19444;50.518;10.870;2023-02-28T04:50:52;97494.78;;;-3.69;100.00
32933;BME280;19444;50.518;10.870;2023-02-28T04:53:49;97503.88;;;-3.65;100.00
32933;BME280;19444;50.518;10.870;2023-02-28T04:56:46;97499.22;;;-3.35;100.00
32933;BME280;19444;50.518;10.870;2023-02-28T04:59:45;97497.59;;;-3.36;100.00
32933;BME280;19444;50.518;10.870;2023-02-28T05:02:42;97504.59;;;-3.44;100.00
32933;BME280;19444;50.518;10.870;2023-02-28T05:05:39;97499.00;;;-3.34;100.00
32933;BME280;19444;50.518;10.870;2023-02-28T05:08:36;97503.28;;;-3.26;100.00
32933;BME280;19444;50.518;10.870;2023-02-28T05:11:35;97507.50;;;-3.25;100.00
32933;BME280;19444;50.518;10.870;2023-02-28T05:14:32;97505.13;;;-3.13;100.00
32933;BME280;19444;50.518;10.870;2023-02-28T05:17:29;97506.06;;;-3.34;100.00
32933;BME280;19444;50.518;10.870;2023-02-28T05:20:26;97510.16;;;-3.19;100.00
32933;BME280;19444;50.518;10.870;2023-02-28T05:23:23;97514.16;;;-3.23;100.00
32933;BME280;19444;50.518;10.870;2023-02-28T05:26:21;97515.97;;;-3.23;100.00
32933;BME280;19444;50.518;10.870;2023-02-28T05:29:22;97514.53;;;-3.32;100.00
32933;BME280;19444;50.518;10.870;2023-02-28T05:32:19;97516.88;;;-3.09;100.00
32933;BME280;19444;50.518;10.870;2023-02-28T05:35:16;97514.03;;;-3.08;100.00
32933;BME280;19444;50.518;10.870;2023-02-28T05:38:13;97506.72;;;-3.26;100.00
32933;BME280;19444;50.518;10.870;2023-02-28T05:41:11;97511.81;;;-3.04;100.00
32933;BME280;19444;50.518;10.870;2023-02-28T05:44:08;97501.50;;;-3.19;100.00
32933;BME280;19444;50.518;10.870;2023-02-28T05:47:05;97502.31;;;-3.19;100.00
32933;BME280;19444;50.518;10.870;2023-02-28T05:50:04;97513.63;;;-3.05;100.00
32933;BME280;19444;50.518;10.870;2023-02-28T05:53:01;97515.22;;;-3.17;100.00
32933;BME280;19444;50.518;10.870;2023-02-28T05:55:59;97509.38;;;-3.19;100.00
32933;BME280;19444;50.518;10.870;2023-02-28T05:58:56;97520.66;;;-3.12;100.00
32933;BME280;19444;50.518;10.870;2023-02-28T06:01:53;97515.59;;;-3.20;100.00
32933;BME280;19444;50.518;10.870;2023-02-28T06:04:50;97515.41;;;-3.19;100.00
32933;BME280;19444;50.518;10.870;2023-02-28T06:07:47;97523.63;;;-3.28;100.00
32933;BME280;19444;50.518;10.870;2023-02-28T06:10:44;97520.50;;;-3.10;100.00
32933;BME280;19444;50.518;10.870;2023-02-28T06:13:41;97529.16;;;-3.03;100.00
32933;BME280;19444;50.518;10.870;2023-02-28T06:16:38;97521.75;;;-3.00;100.00
32933;BME280;19444;50.518;10.870;2023-02-28T06:19:38;97535.88;;;-2.94;100.00
32933;BME280;19444;50.518;10.870;2023-02-28T06:22:38;97539.88;;;-3.05;100.00
32933;BME280;19444;50.518;10.870;2023-02-28T06:25:35;97532.34;;;-3.15;100.00
32933;BME280;19444;50.518;10.870;2023-02-28T06:28:33;97540.97;;;-3.27;100.00
32933;BME280;19444;50.518;10.870;2023-02-28T06:31:30;97539.88;;;-3.05;100.00
32933;BME280;19444;50.518;10.870;2023-02-28T06:34:27;97537.03;;;-3.10;100.00
32933;BME280;19444;50.518;10.870;2023-02-28T06:37:24;97542.22;;;-3.17;100.00
32933;BME280;19444;50.518;10.870;2023-02-28T06:40:24;97545.06;;;-3.11;100.00
32933;BME280;19444;50.518;10.870;2023-02-28T06:43:23;97541.47;;;-3.10;100.00
32933;BME280;19444;50.518;10.870;2023-02-28T06:46:20;97547.88;;;-3.13;100.00
32933;BME280;19444;50.518;10.870;2023-02-28T06:49:17;97541.72;;;-2.99;100.00
32933;BME280;19444;50.518;10.870;2023-02-28T06:52:15;97545.72;;;-3.03;100.00
32933;BME280;19444;50.518;10.870;2023-02-28T06:55:12;97547.81;;;-2.85;100.00
32933;BME280;19444;50.518;10.870;2023-02-28T06:58:09;97548.13;;;-3.08;100.00
32933;BME280;19444;50.518;10.870;2023-02-28T07:01:13;97563.28;;;-2.97;100.00
32933;BME280;19444;50.518;10.870;2023-02-28T07:04:10;97558.09;;;-2.90;100.00
32933;BME280;19444;50.518;10.870;2023-02-28T07:07:07;97559.75;;;-2.76;100.00
32933;BME280;19444;50.518;10.870;2023-02-28T07:10:04;97562.75;;;-2.79;100.00
32933;BME280;19444;50.518;10.870;2023-02-28T07:13:02;97561.00;;;-2.59;100.00
32933;BME280;19444;50.518;10.870;2023-02-28T07:16:03;97569.13;;;-2.40;100.00
32933;BME280;19444;50.518;10.870;2023-02-28T07:19:00;97565.06;;;-2.49;100.00
32933;BME280;19444;50.518;10.870;2023-02-28T07:21:57;97573.78;;;-2.36;100.00
32933;BME280;19444;50.518;10.870;2023-02-28T07:24:54;97572.31;;;-2.65;100.00
32933;BME280;19444;50.518;10.870;2023-02-28T07:27:51;97568.22;;;-2.80;100.00
32933;BME280;19444;50.518;10.870;2023-02-28T07:30:48;97572.50;;;-2.60;100.00
32933;BME280;19444;50.518;10.870;2023-02-28T07:33:45;97572.34;;;-2.38;100.00
32933;BME280;19444;50.518;10.870;2023-02-28T07:36:42;97578.19;;;-2.49;100.00
32933;BME280;19444;50.518;10.870;2023-02-28T07:39:39;97571.53;;;-2.39;100.00
32933;BME280;19444;50.518;10.870;2023-02-28T07:42:40;97576.06;;;-2.06;100.00
32933;BME280;19444;50.518;10.870;2023-02-28T07:45:37;97572.19;;;-2.23;100.00
32933;BME280;19444;50.518;10.870;2023-02-28T07:48:34;97565.72;;;-2.34;100.00
32933;BME280;19444;50.518;10.870;2023-02-28T07:51:32;97571.00;;;-1.88;100.00
32933;BME280;19444;50.518;10.870;2023-02-28T07:54:29;97570.59;;;-1.58;100.00
32933;BME280;19444;50.518;10.870;2023-02-28T07:57:26;97574.44;;;-1.54;100.00
32933;BME280;19444;50.518;10.870;2023-02-28T08:00:23;97570.38;;;-1.44;100.00
32933;BME280;19444;50.518;10.870;2023-02-28T08:03:22;97567.50;;;-1.22;100.00
32933;BME280;19444;50.518;10.870;2023-02-28T08:06:22;97559.34;;;-1.01;100.00
32933;BME280;19444;50.518;10.870;2023-02-28T08:09:19;97556.34;;;-0.60;100.00
32933;BME280;19444;50.518;10.870;2023-02-28T08:12:16;97562.81;;;-1.00;100.00
32933;BME280;19444;50.518;10.870;2023-02-28T08:15:13;97554.94;;;-1.13;100.00
32933;BME280;19444;50.518;10.870;2023-02-28T08:18:10;97555.56;;;-1.25;100.00
32933;BME280;19444;50.518;10.870;2023-02-28T08:21:09;97552.13;;;-1.25;100.00
32933;BME280;19444;50.518;10.870;2023-02-28T08:24:06;97566.09;;;-1.38;100.00
32933;BME280;19444;50.518;10.870;2023-02-28T08:27:03;97566.53;;;-1.41;100.00
32933;BME280;19444;50.518;10.870;2023-02-28T08:30:00;97559.81;;;-1.24;100.00
32933;BME280;19444;50.518;10.870;2023-02-28T08:32:57;97568.88;;;-1.13;100.00
32933;BME280;19444;50.518;10.870;2023-02-28T08:35:55;97557.63;;;-0.75;100.00
32933;BME280;19444;50.518;10.870;2023-02-28T08:38:53;97556.56;;;-1.19;100.00
32933;BME280;19444;50.518;10.870;2023-02-28T08:41:49;97553.44;;;-0.13;100.00
32933;BME280;19444;50.518;10.870;2023-02-28T08:45:02;97549.22;;;0.11;100.00
32933;BME280;19444;50.518;10.870;2023-02-28T08:47:59;97550.38;;;1.50;100.00
32933;BME280;19444;50.518;10.870;2023-02-28T08:51:01;97561.16;;;0.38;100.00
32933;BME280;19444;50.518;10.870;2023-02-28T08:54:04;97545.81;;;3.16;96.72
32933;BME280;19444;50.518;10.870;2023-02-28T08:57:01;97568.13;;;1.12;100.00
32933;BME280;19444;50.518;10.870;2023-02-28T08:59:58;97569.59;;;-0.35;100.00
32933;BME280;19444;50.518;10.870;2023-02-28T09:02:55;97558.13;;;1.33;100.00
32933;BME280;19444;50.518;10.870;2023-02-28T09:05:58;97540.22;;;4.31;100.00
32933;BME280;19444;50.518;10.870;2023-02-28T09:08:58;97537.53;;;4.48;86.49
32933;BME280;19444;50.518;10.870;2023-02-28T09:12:00;97553.00;;;1.20;98.52
32933;BME280;19444;50.518;10.870;2023-02-28T09:14:58;97555.47;;;1.63;99.13
32933;BME280;19444;50.518;10.870;2023-02-28T09:17:55;97545.06;;;-0.04;100.00
32933;BME280;19444;50.518;10.870;2023-02-28T09:20:52;97538.59;;;0.17;100.00
32933;BME280;19444;50.518;10.870;2023-02-28T09:23:50;97547.09;;;-0.06;100.00
32933;BME280;19444;50.518;10.870;2023-02-28T09:26:47;97532.97;;;-0.43;100.00
32933;BME280;19444;50.518;10.870;2023-02-28T09:29:59;97545.00;;;1.08;100.00
32933;BME280;19444;50.518;10.870;2023-02-28T09:32:56;97541.31;;;0.11;100.00
32933;BME280;19444;50.518;10.870;2023-02-28T09:36:02;97530.16;;;0.34;100.00
32933;BME280;19444;50.518;10.870;2023-02-28T09:39:00;97528.63;;;1.18;100.00
32933;BME280;19444;50.518;10.870;2023-02-28T09:41:57;97534.00;;;0.56;100.00
32933;BME280;19444;50.518;10.870;2023-02-28T09:44:56;97520.88;;;3.68;84.34
32933;BME280;19444;50.518;10.870;2023-02-28T09:48:01;97532.09;;;2.32;92.00
32933;BME280;19444;50.518;10.870;2023-02-28T09:51:28;97540.91;;;2.14;92.34
32933;BME280;19444;50.518;10.870;2023-02-28T09:54:32;97511.56;;;7.65;53.92
32933;BME280;19444;50.518;10.870;2023-02-28T09:57:37;97520.25;;;6.68;55.47
32933;BME280;19444;50.518;10.870;2023-02-28T10:00:39;97527.22;;;3.27;73.33
32933;BME280;19444;50.518;10.870;2023-02-28T10:04:33;97526.19;;;5.84;60.77
32933;BME280;19444;50.518;10.870;2023-02-28T10:10:43;97546.22;;;3.36;80.31
32933;BME280;19444;50.518;10.870;2023-02-28T10:14:02;97549.56;;;2.21;91.87
32933;BME280;19444;50.518;10.870;2023-02-28T10:17:12;97547.03;;;4.61;73.46
32933;BME280;19444;50.518;10.870;2023-02-28T10:20:15;97548.34;;;3.79;66.22
32933;BME280;19444;50.518;10.870;2023-02-28T10:23:34;97517.53;;;8.34;51.73
32933;BME280;19444;50.518;10.870;2023-02-28T10:26:32;97530.38;;;6.71;49.73
32933;BME280;19444;50.518;10.870;2023-02-28T10:29:32;97551.28;;;4.62;58.81
32933;BME280;19444;50.518;10.870;2023-02-28T10:32:35;97548.06;;;2.72;68.98
32933;BME280;19444;50.518;10.870;2023-02-28T10:35:32;97529.66;;;6.85;56.13
32933;BME280;19444;50.518;10.870;2023-02-28T10:38:36;97534.22;;;5.89;56.24
32933;BME280;19444;50.518;10.870;2023-02-28T10:41:33;97530.41;;;5.80;56.04
32933;BME280;19444;50.518;10.870;2023-02-28T10:44:32;97538.13;;;3.71;55.76
32933;BME280;19444;50.518;10.870;2023-02-28T10:47:29;97537.81;;;5.29;57.74
32933;BME280;19444;50.518;10.870;2023-02-28T10:53:51;97532.19;;;5.47;51.08
32933;BME280;19444;50.518;10.870;2023-02-28T10:57:17;97526.94;;;5.52;50.79
32933;BME280;19444;50.518;10.870;2023-02-28T11:00:22;97533.13;;;6.44;52.33
32933;BME280;19444;50.518;10.870;2023-02-28T11:03:32;97541.41;;;6.15;48.31
32933;BME280;19444;50.518;10.870;2023-02-28T11:06:32;97532.66;;;5.66;50.20
32933;BME280;19444;50.518;10.870;2023-02-28T11:12:40;97534.75;;;6.13;48.22
32933;BME280;19444;50.518;10.870;2023-02-28T11:15:57;97518.28;;;6.16;50.19
32933;BME280;19444;50.518;10.870;2023-02-28T11:18:55;97512.84;;;5.52;50.55
32933;BME280;19444;50.518;10.870;2023-02-28T11:22:00;97515.00;;;6.41;52.20
32933;BME280;19444;50.518;10.870;2023-02-28T11:25:02;97508.34;;;5.79;50.15
32933;BME280;19444;50.518;10.870;2023-02-28T11:28:37;97503.47;;;5.98;51.93
32933;BME280;19444;50.518;10.870;2023-02-28T11:31:34;97498.63;;;6.64;51.96
32933;BME280;19444;50.518;10.870;2023-02-28T11:34:32;97492.19;;;6.55;50.59
32933;BME280;19444;50.518;10.870;2023-02-28T11:37:31;97492.44;;;6.16;49.04
32933;BME280;19444;50.518;10.870;2023-02-28T11:40:34;97503.28;;;6.42;48.05
32933;BME280;19444;50.518;10.870;2023-02-28T11:47:34;97494.88;;;5.64;50.27
32933;BME280;19444;50.518;10.870;2023-02-28T12:05:01;97479.09;;;6.96;47.87
32933;BME280;19444;50.518;10.870;2023-02-28T12:15:42;97472.63;;;6.02;49.88
32933;BME280;19444;50.518;10.870;2023-02-28T12:29:38;97479.53;;;5.71;52.30
32933;BME280;19444;50.518;10.870;2023-02-28T12:32:47;97478.72;;;5.70;51.79
32933;BME280;19444;50.518;10.870;2023-02-28T12:35:57;97475.97;;;6.19;49.81
32933;BME280;19444;50.518;10.870;2023-02-28T12:39:02;97476.22;;;5.59;51.71
32933;BME280;19444;50.518;10.870;2023-02-28T12:42:28;97464.88;;;5.68;51.21
32933;BME280;19444;50.518;10.870;2023-02-28T12:45:41;97474.84;;;4.64;51.55
32933;BME280;19444;50.518;10.870;2023-02-28T12:49:00;97469.13;;;4.94;51.56
32933;BME280;19444;50.518;10.870;2023-02-28T12:52:00;97471.03;;;4.98;53.66
32933;BME280;19444;50.518;10.870;2023-02-28T12:58:48;97448.56;;;5.06;51.23
32933;BME280;19444;50.518;10.870;2023-02-28T13:06:05;97451.38;;;5.75;51.91
32933;BME280;19444;50.518;10.870;2023-02-28T13:09:16;97445.16;;;6.28;51.30
32933;BME280;19444;50.518;10.870;2023-02-28T13:12:15;97444.75;;;6.10;50.22
32933;BME280;19444;50.518;10.870;2023-02-28T13:15:19;97444.47;;;4.98;52.18
32933;BME280;19444;50.518;10.870;2023-02-28T13:18:45;97444.41;;;5.69;53.80
32933;BME280;19444;50.518;10.870;2023-02-28T13:21:44;97439.63;;;5.71;51.14
32933;BME280;19444;50.518;10.870;2023-02-28T13:24:59;97447.34;;;5.40;51.39
32933;BME280;19444;50.518;10.870;2023-02-28T13:27:56;97441.41;;;5.06;52.57
32933;BME280;19444;50.518;10.870;2023-02-28T13:43:19;97469.97;;;4.55;59.01
32933;BME280;19444;50.518;10.870;2023-02-28T13:46:38;97466.72;;;4.32;59.89
32933;BME280;19444;50.518;10.870;2023-02-28T13:49:51;97463.50;;;4.68;60.07
32933;BME280;19444;50.518;10.870;2023-02-28T14:00:23;97454.03;;;3.66;64.96
32933;BME280;19444;50.518;10.870;2023-02-28T14:07:07;97450.78;;;3.48;76.11
32933;BME280;19444;50.518;10.870;2023-02-28T14:10:08;97446.09;;;3.38;76.77
32933;BME280;19444;50.518;10.870;2023-02-28T14:13:42;97450.38;;;3.39;77.71
32933;BME280;19444;50.518;10.870;2023-02-28T14:16:45;97443.25;;;3.28;70.99
32933;BME280;19444;50.518;10.870;2023-02-28T14:19:47;97448.00;;;2.97;75.77
32933;BME280;19444;50.518;10.870;2023-02-28T14:22:58;97454.66;;;3.11;78.08
32933;BME280;19444;50.518;10.870;2023-02-28T14:29:43;97449.59;;;2.98;80.91
32933;BME280;19444;50.518;10.870;2023-02-28T14:36:40;97443.06;;;2.49;87.13
32933;BME280;19444;50.518;10.870;2023-02-28T14:39:41;97430.28;;;2.58;90.39
32933;BME280;19444;50.518;10.870;2023-02-28T14:42:54;97426.16;;;2.50;91.88
32933;BME280;19444;50.518;10.870;2023-02-28T14:46:04;97424.75;;;2.59;90.04
32933;BME280;19444;50.518;10.870;2023-02-28T14:49:05;97422.69;;;2.38;93.12
32933;BME280;19444;50.518;10.870;2023-02-28T14:55:15;97441.69;;;2.35;100.00
32933;BME280;19444;50.518;10.870;2023-02-28T14:58:26;97438.91;;;1.83;99.10
32933;BME280;19444;50.518;10.870;2023-02-28T15:01:24;97443.88;;;2.03;99.62
32933;BME280;19444;50.518;10.870;2023-02-28T15:04:27;97437.19;;;1.88;100.00
32933;BME280;19444;50.518;10.870;2023-02-28T15:07:24;97447.38;;;1.61;100.00
32933;BME280;19444;50.518;10.870;2023-02-28T15:10:27;97435.38;;;1.35;100.00
32933;BME280;19444;50.518;10.870;2023-02-28T15:13:36;97441.06;;;1.51;100.00
32933;BME280;19444;50.518;10.870;2023-02-28T15:16:41;97427.50;;;1.47;100.00
32933;BME280;19444;50.518;10.870;2023-02-28T15:19:41;97433.44;;;1.31;100.00
32933;BME280;19444;50.518;10.870;2023-02-28T15:22:41;97435.50;;;1.29;100.00
32933;BME280;19444;50.518;10.870;2023-02-28T15:25:40;97435.59;;;1.34;100.00
32933;BME280;19444;50.518;10.870;2023-02-28T15:28:37;97432.75;;;1.35;100.00
32933;BME280;19444;50.518;10.870;2023-02-28T15:31:41;97428.94;;;1.31;100.00
32933;BME280;19444;50.518;10.870;2023-02-28T15:34:52;97435.72;;;0.97;100.00
32933;BME280;19444;50.518;10.870;2023-02-28T15:38:16;97431.69;;;0.95;100.00
32933;BME280;19444;50.518;10.870;2023-02-28T15:41:29;97435.94;;;0.96;100.00
32933;BME280;19444;50.518;10.870;2023-02-28T15:44:29;97433.06;;;0.97;100.00
32933;BME280;19444;50.518;10.870;2023-02-28T15:47:32;97430.50;;;0.91;100.00
32933;BME280;19444;50.518;10.870;2023-02-28T15:50:29;97436.91;;;0.83;100.00
32933;BME280;19444;50.518;10.870;2023-02-28T15:53:35;97443.44;;;0.80;100.00
32933;BME280;19444;50.518;10.870;2023-02-28T15:56:40;97437.50;;;0.85;100.00
32933;BME280;19444;50.518;10.870;2023-02-28T15:59:42;97437.22;;;1.05;100.00
32933;BME280;19444;50.518;10.870;2023-02-28T16:02:44;97434.69;;;0.80;100.00
32933;BME280;19444;50.518;10.870;2023-02-28T16:05:41;97441.00;;;0.79;100.00
32933;BME280;19444;50.518;10.870;2023-02-28T16:08:38;97435.00;;;0.53;100.00
32933;BME280;19444;50.518;10.870;2023-02-28T16:11:40;97435.97;;;0.77;100.00
32933;BME280;19444;50.518;10.870;2023-02-28T16:14:38;97442.00;;;0.48;100.00
32933;BME280;19444;50.518;10.870;2023-02-28T16:17:38;97446.38;;;0.36;100.00
32933;BME280;19444;50.518;10.870;2023-02-28T16:20:36;97447.63;;;0.33;100.00
32933;BME280;19444;50.518;10.870;2023-02-28T16:23:33;97452.53;;;0.48;100.00
32933;BME280;19444;50.518;10.870;2023-02-28T16:26:30;97464.47;;;0.32;100.00
32933;BME280;19444;50.518;10.870;2023-02-28T16:29:31;97464.13;;;0.04;100.00
32933;BME280;19444;50.518;10.870;2023-02-28T16:32:29;97466.75;;;0.04;100.00
32933;BME280;19444;50.518;10.870;2023-02-28T16:35:26;97469.66;;;-0.05;100.00
32933;BME280;19444;50.518;10.870;2023-02-28T16:38:23;97466.75;;;0.04;100.00
32933;BME280;19444;50.518;10.870;2023-02-28T16:41:25;97474.75;;;-0.10;100.00
32933;BME280;19444;50.518;10.870;2023-02-28T16:44:33;97465.25;;;-0.11;100.00
32933;BME280;19444;50.518;10.870;2023-02-28T16:47:30;97475.09;;;-0.24;100.00
32933;BME280;19444;50.518;10.870;2023-02-28T16:50:30;97487.41;;;-0.43;100.00
32933;BME280;19444;50.518;10.870;2023-02-28T16:53:29;97483.75;;;-0.17;100.00
32933;BME280;19444;50.518;10.870;2023-02-28T16:56:26;97483.75;;;-0.17;100.00
32933;BME280;19444;50.518;10.870;2023-02-28T16:59:24;97479.78;;;-0.26;100.00
32933;BME280;19444;50.518;10.870;2023-02-28T17:02:22;97481.69;;;-0.40;100.00
32933;BME280;19444;50.518;10.870;2023-02-28T17:05:20;97483.53;;;-0.41;100.00
32933;BME280;19444;50.518;10.870;2023-02-28T17:08:18;97488.19;;;-0.43;100.00
32933;BME280;19444;50.518;10.870;2023-02-28T17:11:15;97494.91;;;-0.47;100.00
32933;BME280;19444;50.518;10.870;2023-02-28T17:14:13;97499.53;;;-0.42;100.00
32933;BME280;19444;50.518;10.870;2023-02-28T17:17:19;97502.25;;;-0.55;100.00
32933;BME280;19444;50.518;10.870;2023-02-28T17:20:20;97507.38;;;-0.67;100.00
32933;BME280;19444;50.518;10.870;2023-02-28T17:23:21;97506.31;;;-0.60;100.00
32933;BME280;19444;50.518;10.870;2023-02-28T17:26:20;97515.91;;;-0.72;100.00
32933;BME280;19444;50.518;10.870;2023-02-28T17:29:21;97524.75;;;-0.60;100.00
32933;BME280;19444;50.518;10.870;2023-02-28T17:32:18;97521.75;;;-0.63;100.00
32933;BME280;19444;50.518;10.870;2023-02-28T17:35:16;97526.91;;;-0.88;100.00